CW0561 Weather Reports


time (UTC)temp
F
wind
direction
speed
knots
gust
knots
rain 1hr
in
rain 24hr
in
rain mn
in
humidity
%
barometer
mb
20240518194554 81 257 2.6 20.9 0.00 0.00 0.00 47 1003.9
20240518193554 81 286 5.2 20.0 0.00 0.00 0.00 48 1003.8
20240518192554 81 290 0.0 14.8 0.00 0.00 0.00 49 1003.6
20240518191555 81 308 12.2 13.0 0.00 0.00 0.00 48 1003.5
20240518190554 80 261 5.2 15.6 0.00 0.00 0.00 51 1003.4
20240518185554 81 280 9.6 15.6 0.00 0.00 0.00 50 1003.3
20240518182554 80 326 10.4 13.0 0.00 0.00 0.00 53 1003.0
20240518181554 81 259 0.0 9.6 0.00 0.00 0.00 55 1002.9
20240518180554 80 241 0.0 10.4 0.00 0.00 0.00 55 1002.7
20240518174553 79 300 4.3 15.6 0.00 0.00 0.00 56 1002.6
20240518173554 79 287 4.3 10.4 0.00 0.00 0.00 57 1002.6
20240518172553 79 265 10.4 15.6 0.00 0.00 0.00 56 1002.5
20240518170553 78 269 7.8 10.4 0.00 0.00 0.00 57 1002.3
20240518165553 78 245 2.6 9.6 0.00 0.00 0.00 60 1002.3
20240518164553 78 189 0.0 9.6 0.00 0.00 0.00 60 1002.2
20240518163553 78 192 4.3 9.6 0.00 0.00 0.00 59 1002.0
20240518162553 77 209 0.0 7.8 0.00 0.00 0.00 60 1001.9
20240518161553 77 199 2.6 10.4 0.00 0.00 0.00 60 1001.8
20240518160552 77 213 1.7 7.8 0.00 0.00 0.00 59 1001.8
20240518155552 76 247 0.0 15.6 0.00 0.00 0.00 61 1001.6
20240518154553 76 247 0.0 10.4 0.00 0.00 0.00 62 1001.6
20240518153552 75 311 0.0 12.2 0.00 0.00 0.00 63 1001.4
20240518152552 75 194 7.8 12.2 0.00 0.00 0.00 64 1001.2
20240518151552 74 180 4.3 9.6 0.00 0.00 0.00 66 1001.2
20240518150552 74 213 0.0 13.0 0.00 0.00 0.00 65 1001.2
20240518145552 74 198 5.2 13.0 0.00 0.00 0.00 65 1001.2
20240518144552 73 240 2.6 14.8 0.00 0.00 0.00 66 1001.3
20240518143552 73 194 0.0 13.0 0.00 0.00 0.00 67 1001.2
20240518142552 72 188 12.2 17.4 0.00 0.00 0.00 67 1001.3
20240518141553 72 200 10.4 10.4 0.00 0.00 0.00 68 1001.3
20240518140552 71 197 7.0 14.8 0.00 0.00 0.00 68 1001.3
20240518134552 70 207 7.0 15.6 0.00 0.00 0.00 70 1001.2
20240518133551 69 188 7.0 15.6 0.00 0.00 0.00 71 1001.2
20240518132551 69 180 7.0 13.0 0.00 0.00 0.00 72 1001.4
20240518131552 68 153 5.2 13.0 0.00 0.00 0.00 72 1001.3
20240518130551 68 198 1.7 20.0 0.00 0.00 0.00 72 1001.5
20240518123551 66 158 1.7 12.2 0.00 0.00 0.00 77 1001.3
20240518122551 65 149 0.0 12.2 0.00 0.00 0.00 79 1001.2
20240518121551 65 152 0.0 0.0 0.00 0.00 0.00 81 1001.2
20240518115551 63 157 0.0 2.6 0.00 0.00 0.00 82 1001.2
20240518114551 63 160 0.0 9.6 0.00 0.00 0.00 82 1000.9
20240518113551 63 155 2.6 10.4 0.00 0.00 0.00 82 1000.7
20240518112551 63 150 7.0 9.6 0.00 0.00 0.00 83 1000.5
20240518111552 63 142 5.2 10.4 0.00 0.00 0.00 83 1000.5
20240518105551 66 139 7.0 12.2 0.00 0.00 0.00 77 1001.1
20240518104550 67 161 0.0 12.2 0.00 0.00 0.00 73 1001.3
20240518103550 67 171 7.0 13.0 0.00 0.00 0.00 70 1001.1
20240518102550 67 172 1.7 14.8 0.00 0.00 0.00 70 1001.0
20240518101550 67 155 9.6 17.4 0.00 0.00 0.00 69 1000.8
20240518094550 68 159 7.8 15.6 0.00 0.00 0.00 70 1000.5
20240518093550 68 163 7.0 18.2 0.00 0.00 0.00 68 1000.6
20240518092550 68 132 9.6 14.8 0.00 0.00 0.00 68 1000.4
20240518091550 69 192 0.0 14.8 0.00 0.00 0.00 67 1000.5
20240518090549 69 184 9.6 14.8 0.00 0.00 0.00 65 1000.5
20240518084549 71 157 9.6 17.4 0.00 0.00 0.00 61 1000.4
20240518083550 72 162 7.0 18.2 0.00 0.00 0.00 59 1000.6
20240518082550 72 148 2.6 18.2 0.00 0.00 0.00 58 1000.5
20240518081550 71 201 9.6 13.0 0.00 0.00 0.00 61 1000.5
20240518080549 70 187 4.3 18.2 0.00 0.00 0.00 64 1000.6
20240518074549 68 187 9.6 14.8 0.00 0.00 0.00 70 1000.5
20240518073549 68 198 5.2 25.2 0.00 0.00 0.00 70 1000.5
20240518072549 70 199 10.4 20.9 0.00 0.00 0.00 65 1000.0
20240518071549 69 166 12.2 18.2 0.00 0.00 0.00 64 1000.1
20240518070549 69 169 7.8 17.4 0.00 0.00 0.00 64 1000.5
20240518065549 69 185 4.3 14.8 0.00 0.00 0.00 66 1000.5
20240518064549 68 191 2.6 15.6 0.00 0.00 0.00 67 1000.7
20240518063549 68 202 13.0 18.2 0.00 0.00 0.00 67 1000.6
20240518062549 68 208 9.6 15.6 0.00 0.00 0.00 68 1000.5
20240518061549 68 170 7.0 15.6 0.00 0.00 0.00 68 1000.5
20240518060548 68 155 10.4 15.6 0.00 0.00 0.00 68 1000.6
20240518055549 68 194 4.3 13.0 0.00 0.00 0.00 68 1000.7
20240518054548 68 159 5.2 14.8 0.00 0.00 0.00 68 1000.8
20240518053548 69 170 7.0 20.0 0.00 0.00 0.00 68 1000.8
20240518052548 69 188 2.6 12.2 0.00 0.00 0.00 68 1000.8
20240518051548 69 160 1.7 20.0 0.00 0.00 0.00 66 1000.9
20240518050548 69 188 0.0 17.4 0.00 0.00 0.00 66 1000.8
20240518045548 69 188 9.6 13.0 0.00 0.00 0.00 68 1000.8
20240518044548 67 136 9.6 14.8 0.00 0.00 0.00 71 1000.8
20240518043548 66 169 1.7 14.8 0.00 0.00 0.00 77 1000.8
20240518042548 65 157 7.0 9.6 0.00 0.00 0.00 79 1001.0
20240518041548 65 200 4.3 15.6 0.00 0.00 0.00 80 1001.0
20240518040548 65 170 9.6 14.8 0.00 0.00 0.00 81 1000.9
20240518034548 67 165 7.0 12.2 0.00 0.00 0.00 73 1001.3
20240518033548 67 170 9.6 12.2 0.00 0.00 0.00 74 1001.0
20240518032547 67 161 7.0 13.0 0.00 0.00 0.00 75 1001.2
20240518031548 66 132 5.2 14.8 0.00 0.00 0.00 77 1001.2
20240518030547 66 157 7.0 14.8 0.00 0.00 0.00 79 1001.2
20240518025547 65 188 0.0 12.2 0.00 0.00 0.00 80 1001.3
20240518024547 65 200 7.0 12.2 0.00 0.00 0.00 81 1001.3
20240518022547 65 163 5.2 14.8 0.00 0.00 0.00 83 1001.6
20240518020547 65 189 5.2 14.8 0.00 0.00 0.00 84 1001.4
20240518015547 65 202 0.0 17.4 0.00 0.00 0.00 84 1001.4
20240518014547 66 152 9.6 17.4 0.00 0.00 0.00 81 1001.6
20240518013547 66 169 1.7 17.4 0.00 0.00 0.00 80 1001.5
20240518012547 66 172 5.2 20.0 0.00 0.00 0.00 79 1002.0
20240518011547 65 159 0.0 14.8 0.00 0.00 0.00 82 1002.1
20240518010546 65 142 7.0 15.6 0.00 0.00 0.00 82 1002.2
20240518005546 65 170 2.6 18.2 0.00 0.00 0.00 82 1002.0
20240518003547 65 206 0.0 0.0 0.00 0.00 0.00 79 1002.7
20240517235546 77 255 4.3 13.0 0.00 0.00 0.00 58 1001.8
20240517234546 80 207 0.0 7.0 0.00 0.00 0.00 50 1000.6
20240517233545 81 202 0.0 7.0 0.00 0.00 0.00 44 1000.2
20240517232546 82 202 1.7 12.2 0.00 0.00 0.00 40 999.8
20240517231545 82 192 1.7 10.4 0.00 0.00 0.00 37 999.5
20240517225545 82 172 2.6 14.8 0.00 0.00 0.00 37 999.4
20240517223545 83 177 2.6 17.4 0.00 0.00 0.00 35 999.3
20240517222545 83 157 9.6 14.8 0.00 0.00 0.00 37 999.3
20240517221544 83 160 5.2 12.2 0.00 0.00 0.00 38 999.5
20240517220544 84 179 0.0 15.6 0.00 0.00 0.00 39 999.6
20240517215545 83 173 7.8 10.4 0.00 0.00 0.00 39 999.5
20240517214545 84 187 7.0 15.6 0.00 0.00 0.00 38 1000.0
20240517213545 83 200 0.0 12.2 0.00 0.00 0.00 40 999.8
20240517212544 84 207 0.0 7.8 0.00 0.00 0.00 38 1000.0
20240517211544 84 204 0.0 14.8 0.00 0.00 0.00 38 1000.1
20240517205544 83 240 0.0 20.0 0.00 0.00 0.00 40 1000.1
20240517203544 83 190 2.6 13.0 0.00 0.00 0.00 41 1000.3
20240517202544 82 208 1.7 13.0 0.00 0.00 0.00 41 1000.4
20240517201544 82 216 10.4 15.6 0.00 0.00 0.00 41 1000.6
20240517200543 82 204 12.2 15.6 0.00 0.00 0.00 41 1000.7